Airfield :
LOGIN :

Register | Disclaimer

   EN    FR    IT 

 










Legend :    VFR   Marginal VFR   IFR   Intensive IFR   Very Intensive IFR
Visi :
Ceiling :
>= 8 km
>= 3000ft
5 to 8 km
1000 to 3000 ft
1500m to 5 km
500 to 1000 ft
800 to 1500m
200 to 500 ft
< 800m
< 200 ft
Symbols :   Thunderstorms  Fog  Heavy snow  Heavy precipitations  Wind > 20 kt
SIGMETs :     Misc.  Thunderstorms  Icing  Turbulence  Mountain Waves  Volcanic Ashes







- Airport Elevation : 1906 ft
- IATA code : INN


LOWI - Innsbruck

CURRENT METAR :
  • 281620Z 08010KT 050V120 9999 FEW040 BKN150 20/13 Q1017 NOSIG

EXPIRED METARs :
  • 281550Z 08011KT 040V110 9999 FEW045 SCT055 BKN150 21/13 Q1017 NOSIG
  • 281520Z 08011KT 050V110 9999 FEW045 SCT055 BKN150 21/13 Q1016 NOSIG
  • 281450Z 07010KT 030V100 9999 FEW045 SCT055 BKN150 22/13 Q1016 NOSIG
  • 281420Z 05011KT 9999 FEW045 BKN150 22/14 Q1016 NOSIG
  • 281350Z 07007KT 020V110 9999 FEW045 BKN150 22/14 Q1016 NOSIG

TAF TAF LOWI
Valid from the 28 at 06:00 until the 29 at 06:00 UTC


280515Z 2806/2906 27004KT 9999 FEW040 BKN080 TX23/2815Z TN14/2904Z
TEMPO 2806/2810 27010KT -SHRA SCT040 BKN060
BECMG 2818/2820 VRB02KT SCT040
No reported NOTAMs for that airfield.



MET'MAP, your aeronautical weather chart ! - Copyright ORBIFLY December 2007 - Disclaimer

ORBIFLY MET'MAP TEAM :

Programming & Development : Alexandra Zaïnal
Concept & Development : Baudouin d'Aumeries
Co-Development & Prog : Marc-Olivier Méhu
Technical & hardware support : Manuel Goepfert

Contact : metmap@orbifly.com




SOURCES & CREDITS :

   NOAA